createdAt,value
2019-01-04T00:00:49.277Z,5.60
2019-01-04T00:03:34.631Z,5.63
2019-01-04T00:06:20.251Z,4.77
2019-01-04T00:09:06.447Z,4.97
2019-01-04T00:11:51.887Z,4.87
2019-01-04T00:14:37.855Z,4.33
2019-01-04T00:17:23.455Z,4.47
2019-01-04T00:20:09.158Z,3.90
2019-01-04T00:22:54.530Z,4.63
2019-01-04T00:25:39.599Z,2.73
2019-01-04T00:28:25.078Z,4.07
2019-01-04T00:31:11.600Z,3.80
2019-01-04T00:33:57.156Z,4.13
2019-01-04T00:36:42.823Z,3.23
2019-01-04T00:39:28.529Z,3.00
2019-01-04T00:42:13.824Z,2.90
2019-01-04T00:44:59.203Z,2.83
2019-01-04T00:47:44.723Z,2.90
2019-01-04T00:50:30.714Z,2.73
2019-01-04T00:53:16.416Z,3.10
2019-01-04T00:56:37.616Z,2.83
2019-01-04T01:00:17.233Z,2.90
2019-01-04T01:04:15.287Z,3.43
2019-01-04T01:07:41.677Z,2.87
2019-01-04T01:10:54.992Z,2.83
2019-01-04T01:13:59.432Z,3.27
2019-01-04T01:17:05.963Z,2.70
2019-01-04T01:20:35.208Z,2.47
2019-01-04T01:23:59.972Z,2.43
2019-01-04T01:27:13.200Z,3.03
2019-01-04T01:30:32.726Z,3.37
2019-01-04T01:33:46.841Z,3.50
2019-01-04T01:37:06.254Z,2.73
2019-01-04T01:40:23.526Z,2.63
2019-01-04T01:43:42.051Z,2.60
2019-01-04T01:46:41.651Z,2.93
2019-01-04T01:50:13.786Z,3.10
2019-01-04T01:52:59.346Z,3.10
2019-01-04T01:55:44.878Z,3.30
2019-01-04T01:58:30.229Z,3.03
2019-01-04T02:01:15.594Z,2.83
2019-01-04T02:04:00.953Z,3.40
2019-01-04T02:06:46.625Z,3.00
2019-01-04T02:09:31.903Z,3.03
2019-01-04T02:12:17.580Z,2.73
2019-01-04T02:15:03.804Z,3.63
2019-01-04T02:17:49.634Z,3.50
2019-01-04T02:20:35.460Z,2.83
2019-01-04T02:23:20.944Z,3.30
2019-01-04T02:26:06.415Z,3.20
2019-01-04T02:28:52.102Z,2.67
2019-01-04T02:31:37.786Z,3.90
2019-01-04T02:34:23.706Z,2.80
2019-01-04T02:37:09.333Z,4.10
2019-01-04T02:39:54.706Z,3.10
2019-01-04T02:42:40.195Z,3.90
2019-01-04T02:45:25.549Z,3.13
2019-01-04T02:48:11.438Z,3.37
2019-01-04T02:50:56.676Z,3.10
2019-01-04T02:53:42.308Z,3.27
2019-01-04T02:56:27.472Z,3.40
2019-01-04T02:59:13.411Z,3.93
2019-01-04T03:01:59.079Z,3.67
2019-01-04T03:04:44.626Z,3.23
2019-01-04T03:07:29.940Z,3.33
2019-01-04T03:10:15.462Z,3.30
2019-01-04T03:13:01.101Z,3.60
2019-01-04T03:15:46.752Z,3.63
2019-01-04T03:18:32.339Z,4.33
2019-01-04T03:21:17.872Z,3.90
2019-01-04T03:24:03.659Z,3.30
2019-01-04T03:26:49.106Z,4.07
2019-01-04T03:29:34.227Z,4.33
2019-01-04T03:32:19.577Z,4.05
2019-01-04T03:35:05.250Z,4.20
2019-01-04T03:37:50.615Z,4.10
2019-01-04T03:40:36.818Z,4.10
2019-01-04T03:43:22.176Z,3.63
2019-01-04T03:46:07.545Z,4.10
2019-01-04T03:48:53.559Z,4.78
2019-01-04T03:51:38.834Z,4.62
2019-01-04T03:54:24.457Z,4.87
2019-01-04T03:57:10.323Z,5.05
2019-01-04T03:59:55.888Z,5.22
2019-01-04T04:02:41.974Z,5.30
2019-01-04T04:05:27.612Z,5.65
2019-01-04T04:08:12.961Z,5.80
2019-01-04T04:10:59.684Z,5.50
2019-01-04T04:13:45.035Z,5.75
2019-01-04T04:16:30.339Z,7.37
2019-01-04T04:19:15.739Z,6.27
2019-01-04T04:22:01.412Z,6.33
2019-01-04T04:24:46.760Z,6.03
2019-01-04T04:27:32.080Z,6.42
2019-01-04T04:30:20.671Z,5.87
2019-01-04T04:33:06.205Z,6.33
2019-01-04T04:35:51.788Z,6.40
2019-01-04T04:38:37.323Z,6.90
2019-01-04T04:41:22.670Z,7.60
2019-01-04T04:44:08.200Z,7.37
2019-01-04T04:46:53.982Z,7.83
2019-01-04T04:49:40.093Z,8.43
2019-01-04T04:52:25.331Z,7.47
2019-01-04T04:55:10.774Z,7.50
2019-01-04T04:57:56.591Z,7.33
2019-01-04T05:00:42.013Z,7.37
2019-01-04T05:03:28.166Z,6.83
2019-01-04T05:06:13.550Z,7.40
2019-01-04T05:08:59.017Z,7.93
2019-01-04T05:11:44.598Z,8.23
2019-01-04T05:14:30.319Z,7.53
2019-01-04T05:17:15.801Z,8.00
2019-01-04T05:20:01.965Z,7.97
2019-01-04T05:22:47.861Z,7.30
2019-01-04T05:25:33.297Z,7.73
2019-01-04T05:28:18.373Z,8.98
2019-01-04T05:31:03.646Z,7.80
2019-01-04T05:33:48.860Z,7.75
2019-01-04T05:36:34.222Z,8.50
2019-01-04T05:39:20.011Z,8.33
2019-01-04T05:42:05.298Z,8.78
2019-01-04T05:44:50.866Z,7.65
2019-01-04T05:47:36.346Z,7.83
2019-01-04T05:50:22.110Z,8.05
2019-01-04T05:53:07.321Z,6.80
2019-01-04T05:55:53.286Z,6.57
2019-01-04T05:58:39.306Z,6.60
2019-01-04T06:01:25.066Z,6.20
2019-01-04T06:04:10.424Z,8.00
2019-01-04T06:06:55.659Z,8.03
2019-01-04T06:09:41.243Z,7.83
2019-01-04T06:12:26.607Z,8.67
2019-01-04T06:15:11.975Z,9.23
2019-01-04T06:17:59.219Z,9.53
2019-01-04T06:20:44.763Z,10.80
2019-01-04T06:23:30.314Z,8.70
2019-01-04T06:26:15.430Z,9.13
2019-01-04T06:29:00.867Z,9.20
2019-01-04T06:31:45.965Z,9.25
2019-01-04T06:34:31.447Z,8.45
2019-01-04T06:37:17.319Z,9.77
2019-01-04T06:40:04.935Z,7.85
2019-01-04T06:42:50.478Z,8.50
2019-01-04T06:45:36.051Z,7.33
2019-01-04T06:48:21.478Z,8.83
2019-01-04T06:51:06.904Z,8.88
2019-01-04T06:53:53.255Z,9.33
2019-01-04T06:56:39.098Z,9.25
2019-01-04T06:59:24.743Z,9.05
2019-01-04T07:02:10.405Z,8.73
2019-01-04T07:04:56.098Z,8.28
2019-01-04T07:07:41.571Z,8.25
2019-01-04T07:10:26.981Z,7.30
2019-01-04T07:13:12.744Z,6.90
2019-01-04T07:15:58.115Z,7.15
2019-01-04T07:18:44.089Z,7.10
2019-01-04T07:21:29.439Z,6.90
2019-01-04T07:24:14.993Z,6.78
2019-01-04T07:27:00.646Z,6.70
2019-01-04T07:29:46.234Z,6.93
2019-01-04T07:32:31.914Z,7.90
2019-01-04T07:35:17.286Z,6.75
2019-01-04T07:38:03.122Z,7.17
2019-01-04T07:40:48.778Z,7.40
2019-01-04T07:43:34.191Z,7.33
2019-01-04T07:46:19.286Z,6.72
2019-01-04T07:49:05.022Z,6.62
2019-01-04T07:51:53.045Z,6.65
2019-01-04T07:54:38.851Z,6.15
2019-01-04T07:57:24.420Z,5.50
2019-01-04T08:00:14.494Z,5.97
2019-01-04T08:03:11.572Z,5.05
2019-01-04T08:05:59.032Z,5.22
2019-01-04T08:08:44.897Z,4.67
2019-01-04T08:11:30.671Z,3.85
2019-01-04T08:14:15.843Z,3.75
2019-01-04T08:17:01.303Z,3.20
2019-01-04T08:19:46.839Z,3.95
2019-01-04T08:22:33.351Z,3.75
2019-01-04T08:25:18.823Z,2.83
2019-01-04T08:28:04.651Z,3.12
2019-01-04T08:30:50.301Z,2.90
2019-01-04T08:33:35.670Z,2.52
2019-01-04T08:36:20.947Z,2.10
2019-01-04T08:39:07.378Z,2.42
2019-01-04T08:41:53.396Z,2.42
2019-01-04T08:44:38.742Z,2.50
2019-01-04T08:47:24.060Z,2.50
2019-01-04T08:50:11.186Z,2.75
2019-01-04T08:52:56.882Z,2.15
2019-01-04T08:55:42.347Z,2.50
2019-01-04T08:58:27.807Z,2.30
2019-01-04T09:01:13.299Z,2.90
2019-01-04T09:03:59.431Z,3.45
2019-01-04T09:06:45.144Z,2.77
2019-01-04T09:09:30.678Z,2.95
2019-01-04T09:12:16.449Z,3.35
2019-01-04T09:15:01.618Z,2.80
2019-01-04T09:17:47.570Z,3.70
2019-01-04T09:20:33.632Z,3.02
2019-01-04T09:23:19.188Z,2.42
2019-01-04T09:26:04.662Z,3.15
2019-01-04T09:28:50.427Z,3.52
2019-01-04T09:31:35.655Z,3.05
2019-01-04T09:34:21.085Z,3.40
2019-01-04T09:37:06.561Z,3.70
2019-01-04T09:39:52.302Z,2.90
2019-01-04T09:42:37.567Z,3.02
2019-01-04T09:45:23.123Z,2.30
2019-01-04T09:48:08.315Z,2.58
2019-01-04T09:50:53.579Z,4.20
2019-01-04T09:53:38.764Z,3.35
2019-01-04T09:56:24.324Z,3.05
2019-01-04T09:59:09.835Z,3.85
2019-01-04T10:01:55.423Z,3.55
2019-01-04T10:04:40.914Z,3.55
2019-01-04T10:07:26.244Z,4.33
2019-01-04T10:10:11.642Z,3.90
2019-01-04T10:12:57.325Z,3.62
2019-01-04T10:15:42.946Z,3.90
2019-01-04T10:18:28.602Z,3.55
2019-01-04T10:21:14.161Z,4.12
2019-01-04T10:24:00.941Z,3.80
2019-01-04T10:26:46.474Z,3.65
2019-01-04T10:29:32.403Z,4.33
2019-01-04T10:32:17.930Z,3.83
2019-01-04T10:35:03.678Z,3.65
2019-01-04T10:37:49.085Z,4.25
2019-01-04T10:40:34.566Z,4.33
2019-01-04T10:43:20.214Z,4.60
2019-01-04T10:46:05.482Z,4.35
2019-01-04T10:48:51.132Z,4.97
2019-01-04T10:51:36.542Z,4.30
2019-01-04T10:54:22.326Z,3.67
2019-01-04T10:57:07.879Z,3.92
2019-01-04T10:59:53.396Z,3.87
2019-01-04T11:02:41.511Z,3.25
2019-01-04T11:05:27.386Z,3.47
2019-01-04T11:08:12.749Z,3.50
2019-01-04T11:10:58.251Z,4.60
2019-01-04T11:13:43.498Z,3.45
2019-01-04T11:16:29.374Z,3.70
2019-01-04T11:19:14.661Z,3.65
2019-01-04T11:22:36.303Z,3.40
2019-01-04T11:26:04.722Z,3.52
2019-01-04T11:29:08.708Z,3.50
2019-01-04T11:32:32.935Z,4.37
2019-01-04T11:35:49.510Z,3.65
2019-01-04T11:39:04.689Z,3.22
2019-01-04T11:42:16.983Z,3.70
2019-01-04T11:45:21.146Z,3.85
2019-01-04T11:48:49.739Z,3.90
2019-01-04T11:52:16.242Z,4.67
2019-01-04T11:55:02.011Z,2.95
2019-01-04T11:57:47.677Z,3.72
2019-01-04T12:00:33.319Z,3.58
2019-01-04T12:03:18.680Z,3.42
2019-01-04T12:06:04.501Z,3.95
2019-01-04T12:08:49.885Z,3.00
2019-01-04T12:11:35.554Z,3.40
2019-01-04T12:14:21.363Z,3.20
2019-01-04T12:17:07.293Z,3.77
2019-01-04T12:19:53.019Z,3.15
2019-01-04T12:22:38.599Z,3.60
2019-01-04T12:25:24.044Z,3.25
2019-01-04T12:28:09.839Z,2.95
2019-01-04T12:30:55.365Z,2.75
2019-01-04T12:33:40.865Z,2.40
2019-01-04T12:36:26.635Z,3.40
2019-01-04T12:39:12.822Z,3.20
2019-01-04T12:41:58.136Z,2.55
2019-01-04T12:44:43.616Z,2.77
2019-01-04T12:47:30.407Z,3.52
2019-01-04T12:50:15.782Z,2.50
2019-01-04T12:53:01.119Z,2.77
2019-01-04T12:55:46.643Z,2.80
2019-01-04T12:58:32.518Z,3.35
2019-01-04T13:01:17.759Z,2.90
2019-01-04T13:04:03.292Z,2.62
2019-01-04T13:06:49.128Z,2.33
2019-01-04T13:09:35.099Z,2.92
2019-01-04T13:12:20.186Z,3.47
2019-01-04T13:15:06.330Z,3.90
2019-01-04T13:17:52.218Z,3.30
2019-01-04T13:20:38.089Z,3.05
2019-01-04T13:23:24.699Z,3.65
2019-01-04T13:26:10.404Z,3.50
2019-01-04T13:28:56.150Z,3.92
2019-01-04T13:31:41.890Z,3.90
2019-01-04T13:34:27.328Z,4.65
2019-01-04T13:37:12.392Z,4.90
2019-01-04T13:39:58.586Z,4.08
2019-01-04T13:42:44.157Z,3.92
2019-01-04T13:45:29.830Z,3.22
2019-01-04T13:48:15.160Z,4.50
2019-01-04T13:51:00.601Z,4.20
2019-01-04T13:53:46.126Z,4.00
2019-01-04T13:56:31.871Z,4.12
2019-01-04T13:59:18.374Z,4.15
2019-01-04T14:02:03.709Z,4.65
2019-01-04T14:04:48.781Z,4.42
2019-01-04T14:07:33.922Z,4.55
2019-01-04T14:10:20.631Z,4.50
2019-01-04T14:13:09.320Z,4.85
2019-01-04T14:15:54.166Z,4.58
2019-01-04T14:18:39.783Z,4.00
2019-01-04T14:21:25.596Z,4.62
2019-01-04T14:24:11.150Z,4.50
2019-01-04T14:26:57.911Z,4.72
2019-01-04T14:29:43.845Z,4.80
2019-01-04T14:32:29.590Z,5.08
2019-01-04T14:35:15.222Z,4.95
2019-01-04T14:38:01.028Z,5.20
2019-01-04T14:40:46.444Z,5.85
2019-01-04T14:43:31.977Z,5.60
2019-01-04T14:46:17.098Z,4.45
2019-01-04T14:49:02.858Z,5.22
2019-01-04T14:51:48.457Z,5.12
2019-01-04T14:54:34.103Z,4.40
2019-01-04T14:57:19.374Z,4.45
2019-01-04T15:00:07.559Z,5.05
2019-01-04T15:02:53.320Z,4.37
2019-01-04T15:05:38.672Z,4.87
2019-01-04T15:08:23.816Z,5.22
2019-01-04T15:11:09.514Z,4.40
2019-01-04T15:13:55.223Z,4.78
2019-01-04T15:16:40.887Z,4.17
2019-01-04T15:19:26.899Z,4.60
2019-01-04T15:22:12.428Z,4.65
2019-01-04T15:24:57.644Z,4.58
2019-01-04T15:27:43.030Z,4.78
2019-01-04T15:30:28.325Z,3.72
2019-01-04T15:33:14.675Z,4.05
2019-01-04T15:35:59.922Z,4.42
2019-01-04T15:38:45.606Z,4.60
2019-01-04T15:41:30.937Z,4.47
2019-01-04T15:44:15.952Z,5.60
2019-01-04T15:47:01.347Z,4.65
2019-01-04T15:49:48.083Z,4.53
2019-01-04T15:52:33.466Z,5.17
2019-01-04T15:55:19.187Z,5.12
2019-01-04T15:58:04.882Z,5.03
2019-01-04T16:00:50.672Z,5.17
2019-01-04T16:03:36.277Z,5.33
2019-01-04T16:06:22.140Z,4.40
2019-01-04T16:09:07.731Z,4.85
2019-01-04T16:11:53.268Z,4.83
2019-01-04T16:14:39.097Z,4.85
2019-01-04T16:17:24.999Z,4.47
2019-01-04T16:20:10.919Z,4.20
2019-01-04T16:22:56.451Z,5.15
2019-01-04T16:25:41.829Z,5.53
2019-01-04T16:28:27.114Z,5.03
2019-01-04T16:31:12.747Z,5.22
2019-01-04T16:33:58.631Z,5.50
2019-01-04T16:36:44.959Z,4.97
2019-01-04T16:39:30.685Z,6.28
2019-01-04T16:42:17.163Z,4.90
2019-01-04T16:45:03.366Z,4.87
2019-01-04T16:47:48.956Z,4.90
2019-01-04T16:50:34.318Z,4.55
2019-01-04T16:53:19.530Z,4.62
2019-01-04T16:56:05.420Z,4.90
2019-01-04T16:58:51.477Z,5.20
2019-01-04T17:01:37.169Z,5.10
2019-01-04T17:04:22.683Z,5.22
2019-01-04T17:07:08.588Z,6.70
2019-01-04T17:09:54.149Z,7.50
2019-01-04T17:12:39.795Z,5.85
2019-01-04T17:15:25.487Z,6.20
2019-01-04T17:18:11.346Z,6.00
2019-01-04T17:20:56.974Z,6.03
2019-01-04T17:23:42.767Z,5.25
2019-01-04T17:26:28.319Z,6.45
2019-01-04T17:29:14.050Z,5.53
2019-01-04T17:31:59.651Z,5.00
2019-01-04T17:34:44.926Z,5.33
2019-01-04T17:37:30.751Z,4.80
2019-01-04T17:40:16.262Z,4.03
2019-01-04T17:43:01.720Z,4.62
2019-01-04T17:45:47.415Z,4.12
2019-01-04T17:48:32.909Z,4.05
2019-01-04T17:51:18.555Z,5.17
2019-01-04T17:54:04.199Z,4.67
2019-01-04T17:56:50.030Z,3.92
2019-01-04T17:59:35.407Z,4.10
2019-01-04T18:02:21.355Z,4.28
2019-01-04T18:05:06.874Z,5.30
2019-01-04T18:07:52.094Z,4.35
2019-01-04T18:10:37.490Z,4.62
2019-01-04T18:13:23.202Z,3.85
2019-01-04T18:16:09.105Z,4.08
2019-01-04T18:18:54.896Z,4.15
2019-01-04T18:21:40.614Z,4.42
2019-01-04T18:24:26.597Z,3.70
2019-01-04T18:27:12.587Z,3.37
2019-01-04T18:29:58.221Z,3.30
2019-01-04T18:32:44.779Z,3.65
2019-01-04T18:35:30.542Z,2.95
2019-01-04T18:38:15.835Z,3.62
2019-01-04T18:41:01.490Z,3.77
2019-01-04T18:43:46.927Z,3.80
2019-01-04T18:46:32.376Z,4.15
2019-01-04T18:49:18.210Z,3.65
2019-01-04T18:52:03.848Z,3.80
2019-01-04T18:54:49.894Z,4.20
2019-01-04T18:57:35.547Z,3.87
2019-01-04T19:00:21.002Z,3.50
2019-01-04T19:03:06.067Z,3.95
2019-01-04T19:05:52.212Z,2.98
2019-01-04T19:08:38.369Z,3.70
2019-01-04T19:11:23.815Z,2.98
2019-01-04T19:14:10.551Z,3.33
2019-01-04T19:16:57.551Z,3.50
2019-01-04T19:19:45.378Z,3.47
2019-01-04T19:22:31.121Z,3.62
2019-01-04T19:25:17.689Z,4.35
2019-01-04T19:28:04.393Z,4.05
2019-01-04T19:30:50.630Z,2.87
2019-01-04T19:33:36.186Z,3.75
2019-01-04T19:36:21.846Z,3.80
2019-01-04T19:39:08.578Z,4.62
2019-01-04T19:41:54.212Z,5.03
2019-01-04T19:44:41.101Z,5.08
2019-01-04T19:47:27.653Z,5.80
2019-01-04T19:50:21.485Z,5.50
2019-01-04T19:53:07.561Z,5.75
2019-01-04T19:55:53.410Z,4.97
2019-01-04T19:58:42.598Z,5.92
2019-01-04T20:01:28.464Z,5.17
2019-01-04T20:04:14.654Z,4.92
2019-01-04T20:08:10.561Z,4.40
2019-01-04T20:12:22.037Z,4.90
2019-01-04T20:15:52.680Z,4.10
2019-01-04T20:19:08.258Z,3.65
2019-01-04T20:22:17.144Z,4.20
2019-01-04T20:25:25.472Z,3.52
2019-01-04T20:28:24.298Z,3.60
2019-01-04T20:31:26.861Z,3.42
2019-01-04T20:34:41.748Z,3.17
2019-01-04T20:37:46.149Z,3.62
2019-01-04T20:40:57.722Z,2.90
2019-01-04T20:44:08.884Z,3.37
2019-01-04T20:47:16.261Z,3.60
2019-01-04T20:50:20.598Z,3.72
2019-01-04T20:53:37.328Z,3.50
2019-01-04T20:56:47.191Z,3.45
2019-01-04T20:59:51.449Z,2.50
2019-01-04T21:02:59.212Z,2.85
2019-01-04T21:06:13.297Z,2.33
2019-01-04T21:09:17.082Z,3.30
2019-01-04T21:12:22.939Z,3.20
2019-01-04T21:15:26.849Z,3.35
2019-01-04T21:18:40.245Z,2.90
2019-01-04T21:21:45.643Z,2.92
2019-01-04T21:24:53.808Z,2.37
2019-01-04T21:28:02.377Z,3.17
2019-01-04T21:31:06.175Z,2.90
2019-01-04T21:34:11.525Z,3.17
2019-01-04T21:37:15.422Z,2.72
2019-01-04T21:40:22.114Z,2.75
2019-01-04T21:43:31.741Z,2.60
2019-01-04T21:46:36.490Z,3.02
2019-01-04T21:49:39.771Z,2.52
2019-01-04T21:52:37.646Z,2.75
2019-01-04T21:55:54.771Z,2.10
2019-01-04T21:58:59.304Z,2.45
2019-01-04T22:02:12.948Z,3.22
2019-01-04T22:05:16.491Z,2.47
2019-01-04T22:08:19.883Z,2.67
2019-01-04T22:11:23.802Z,2.70
2019-01-04T22:14:25.403Z,2.35
2019-01-04T22:17:46.047Z,2.20
2019-01-04T22:21:09.598Z,2.60
2019-01-04T22:24:19.935Z,2.87
2019-01-04T22:27:23.312Z,2.80
2019-01-04T22:30:23.486Z,2.75
2019-01-04T22:33:21.663Z,2.75
2019-01-04T22:36:28.935Z,2.77
2019-01-04T22:39:46.362Z,4.33
2019-01-04T22:42:51.950Z,4.60
2019-01-04T22:45:54.212Z,4.60
2019-01-04T22:49:05.529Z,3.95
2019-01-04T22:52:16.015Z,3.10
2019-01-04T22:55:29.826Z,3.70
2019-01-04T22:58:34.775Z,3.65
2019-01-04T23:01:43.171Z,4.75
2019-01-04T23:04:51.106Z,4.90
2019-01-04T23:07:53.995Z,4.60
2019-01-04T23:10:54.498Z,4.67
2019-01-04T23:13:58.135Z,5.17
2019-01-04T23:17:02.594Z,5.75
2019-01-04T23:20:10.797Z,5.75
2019-01-04T23:23:14.110Z,4.85
2019-01-04T23:26:25.759Z,4.17
2019-01-04T23:29:23.149Z,4.30
2019-01-04T23:32:26.067Z,5.97
2019-01-04T23:35:37.188Z,5.20
2019-01-04T23:38:31.404Z,5.33
2019-01-04T23:41:45.936Z,4.72
2019-01-04T23:44:50.755Z,4.58
2019-01-04T23:47:54.082Z,4.03
2019-01-04T23:51:05.694Z,3.90
2019-01-04T23:54:17.376Z,3.45
2019-01-04T23:57:20.788Z,2.80
